sensor_id;sensor_type;location;lat;lon;timestamp;P1;durP1;ratioP1;P2;durP2;ratioP2
57315;SDS011;43156;50.942;18.144;2022-07-29T00:01:30;7.10;;;2.40;;
57315;SDS011;43156;50.942;18.144;2022-07-29T00:04:25;4.80;;;2.30;;
57315;SDS011;43156;50.942;18.144;2022-07-29T00:07:17;4.20;;;2.30;;
57315;SDS011;43156;50.942;18.144;2022-07-29T00:10:05;4.50;;;2.40;;
57315;SDS011;43156;50.942;18.144;2022-07-29T00:12:53;3.80;;;2.30;;
57315;SDS011;43156;50.942;18.144;2022-07-29T00:15:40;7.40;;;2.50;;
57315;SDS011;43156;50.942;18.144;2022-07-29T00:18:43;4.00;;;2.10;;
57315;SDS011;43156;50.942;18.144;2022-07-29T00:21:31;5.80;;;2.00;;
57315;SDS011;43156;50.942;18.144;2022-07-29T00:24:17;8.10;;;2.50;;
57315;SDS011;43156;50.942;18.144;2022-07-29T00:27:03;6.00;;;2.70;;
57315;SDS011;43156;50.942;18.144;2022-07-29T00:29:50;5.10;;;2.60;;
57315;SDS011;43156;50.942;18.144;2022-07-29T00:32:35;5.00;;;2.40;;
57315;SDS011;43156;50.942;18.144;2022-07-29T00:35:20;4.90;;;2.50;;
57315;SDS011;43156;50.942;18.144;2022-07-29T00:38:24;4.80;;;2.50;;
57315;SDS011;43156;50.942;18.144;2022-07-29T00:41:12;5.60;;;2.60;;
57315;SDS011;43156;50.942;18.144;2022-07-29T00:44:01;4.30;;;2.20;;
57315;SDS011;43156;50.942;18.144;2022-07-29T00:46:47;4.90;;;2.50;;
57315;SDS011;43156;50.942;18.144;2022-07-29T00:49:35;6.00;;;2.70;;
57315;SDS011;43156;50.942;18.144;2022-07-29T00:52:20;5.00;;;2.60;;
57315;SDS011;43156;50.942;18.144;2022-07-29T00:55:10;4.20;;;2.60;;
57315;SDS011;43156;50.942;18.144;2022-07-29T00:57:58;5.10;;;2.60;;
57315;SDS011;43156;50.942;18.144;2022-07-29T01:00:52;4.40;;;2.40;;
57315;SDS011;43156;50.942;18.144;2022-07-29T01:03:37;6.20;;;2.50;;
57315;SDS011;43156;50.942;18.144;2022-07-29T01:06:29;4.30;;;2.40;;
57315;SDS011;43156;50.942;18.144;2022-07-29T01:09:16;6.00;;;2.90;;
57315;SDS011;43156;50.942;18.144;2022-07-29T01:12:16;5.50;;;2.60;;
57315;SDS011;43156;50.942;18.144;2022-07-29T01:15:03;6.00;;;3.00;;
57315;SDS011;43156;50.942;18.144;2022-07-29T01:17:54;3.40;;;2.40;;
57315;SDS011;43156;50.942;18.144;2022-07-29T01:23:40;6.40;;;2.90;;
57315;SDS011;43156;50.942;18.144;2022-07-29T01:26:41;4.80;;;2.80;;
57315;SDS011;43156;50.942;18.144;2022-07-29T01:29:36;6.20;;;2.90;;
57315;SDS011;43156;50.942;18.144;2022-07-29T01:32:24;5.60;;;2.70;;
57315;SDS011;43156;50.942;18.144;2022-07-29T01:41:15;5.90;;;3.00;;
57315;SDS011;43156;50.942;18.144;2022-07-29T01:44:02;6.40;;;2.90;;
57315;SDS011;43156;50.942;18.144;2022-07-29T01:47:14;7.10;;;3.20;;
57315;SDS011;43156;50.942;18.144;2022-07-29T01:50:20;7.10;;;3.30;;
57315;SDS011;43156;50.942;18.144;2022-07-29T01:53:10;6.10;;;3.30;;
57315;SDS011;43156;50.942;18.144;2022-07-29T01:55:58;5.20;;;2.80;;
57315;SDS011;43156;50.942;18.144;2022-07-29T01:58:44;5.20;;;3.00;;
57315;SDS011;43156;50.942;18.144;2022-07-29T02:01:31;7.10;;;3.20;;
57315;SDS011;43156;50.942;18.144;2022-07-29T02:04:29;6.10;;;2.80;;
57315;SDS011;43156;50.942;18.144;2022-07-29T02:07:27;4.90;;;2.90;;
57315;SDS011;43156;50.942;18.144;2022-07-29T02:10:14;5.20;;;2.80;;
57315;SDS011;43156;50.942;18.144;2022-07-29T02:13:02;5.20;;;2.90;;
57315;SDS011;43156;50.942;18.144;2022-07-29T02:15:56;7.90;;;2.90;;
57315;SDS011;43156;50.942;18.144;2022-07-29T02:18:41;5.10;;;2.70;;
57315;SDS011;43156;50.942;18.144;2022-07-29T02:21:36;5.30;;;2.80;;
57315;SDS011;43156;50.942;18.144;2022-07-29T02:24:22;4.60;;;2.80;;
57315;SDS011;43156;50.942;18.144;2022-07-29T02:27:14;5.40;;;3.00;;
57315;SDS011;43156;50.942;18.144;2022-07-29T02:30:03;5.80;;;2.80;;
57315;SDS011;43156;50.942;18.144;2022-07-29T02:32:53;5.50;;;2.50;;
57315;SDS011;43156;50.942;18.144;2022-07-29T02:35:40;6.30;;;2.90;;
57315;SDS011;43156;50.942;18.144;2022-07-29T02:38:26;4.80;;;3.10;;
57315;SDS011;43156;50.942;18.144;2022-07-29T02:44:16;4.70;;;2.90;;
57315;SDS011;43156;50.942;18.144;2022-07-29T02:58:15;6.20;;;2.80;;
57315;SDS011;43156;50.942;18.144;2022-07-29T03:01:10;4.90;;;2.50;;
57315;SDS011;43156;50.942;18.144;2022-07-29T03:03:57;5.40;;;2.60;;
57315;SDS011;43156;50.942;18.144;2022-07-29T03:06:48;4.40;;;2.30;;
57315;SDS011;43156;50.942;18.144;2022-07-29T03:09:34;5.30;;;2.40;;
57315;SDS011;43156;50.942;18.144;2022-07-29T03:12:35;4.70;;;2.40;;
57315;SDS011;43156;50.942;18.144;2022-07-29T03:15:21;7.60;;;2.80;;
57315;SDS011;43156;50.942;18.144;2022-07-29T03:18:09;5.00;;;2.60;;
57315;SDS011;43156;50.942;18.144;2022-07-29T03:21:00;4.00;;;2.50;;
57315;SDS011;43156;50.942;18.144;2022-07-29T03:23:47;5.00;;;2.20;;
57315;SDS011;43156;50.942;18.144;2022-07-29T03:26:33;6.60;;;2.50;;
57315;SDS011;43156;50.942;18.144;2022-07-29T03:29:25;4.40;;;2.50;;
57315;SDS011;43156;50.942;18.144;2022-07-29T03:32:11;4.60;;;2.20;;
57315;SDS011;43156;50.942;18.144;2022-07-29T03:34:59;4.30;;;2.50;;
57315;SDS011;43156;50.942;18.144;2022-07-29T03:37:47;4.00;;;2.30;;
57315;SDS011;43156;50.942;18.144;2022-07-29T03:40:44;5.30;;;2.20;;
57315;SDS011;43156;50.942;18.144;2022-07-29T03:43:32;3.60;;;2.40;;
57315;SDS011;43156;50.942;18.144;2022-07-29T03:46:22;5.20;;;2.10;;
57315;SDS011;43156;50.942;18.144;2022-07-29T03:49:14;3.20;;;2.20;;
57315;SDS011;43156;50.942;18.144;2022-07-29T03:52:05;3.50;;;1.90;;
57315;SDS011;43156;50.942;18.144;2022-07-29T03:54:57;5.00;;;1.90;;
57315;SDS011;43156;50.942;18.144;2022-07-29T03:57:44;4.30;;;1.80;;
57315;SDS011;43156;50.942;18.144;2022-07-29T04:00:34;5.50;;;2.20;;
57315;SDS011;43156;50.942;18.144;2022-07-29T04:03:24;4.90;;;2.70;;
57315;SDS011;43156;50.942;18.144;2022-07-29T04:06:12;4.50;;;2.10;;
57315;SDS011;43156;50.942;18.144;2022-07-29T04:09:08;5.40;;;2.30;;
57315;SDS011;43156;50.942;18.144;2022-07-29T04:11:54;4.30;;;1.90;;
57315;SDS011;43156;50.942;18.144;2022-07-29T04:14:43;3.60;;;1.90;;
57315;SDS011;43156;50.942;18.144;2022-07-29T04:17:33;4.30;;;2.30;;
57315;SDS011;43156;50.942;18.144;2022-07-29T04:20:20;6.40;;;2.00;;
57315;SDS011;43156;50.942;18.144;2022-07-29T04:23:06;4.00;;;1.80;;
57315;SDS011;43156;50.942;18.144;2022-07-29T04:26:06;4.50;;;2.50;;
57315;SDS011;43156;50.942;18.144;2022-07-29T04:28:59;6.00;;;2.10;;
57315;SDS011;43156;50.942;18.144;2022-07-29T04:31:45;7.50;;;2.20;;
57315;SDS011;43156;50.942;18.144;2022-07-29T04:34:32;5.90;;;2.30;;
57315;SDS011;43156;50.942;18.144;2022-07-29T04:37:18;6.00;;;2.40;;
57315;SDS011;43156;50.942;18.144;2022-07-29T04:40:05;7.00;;;2.50;;
57315;SDS011;43156;50.942;18.144;2022-07-29T04:42:53;5.40;;;2.10;;
57315;SDS011;43156;50.942;18.144;2022-07-29T04:45:39;3.90;;;1.80;;
57315;SDS011;43156;50.942;18.144;2022-07-29T04:48:26;4.00;;;2.00;;
57315;SDS011;43156;50.942;18.144;2022-07-29T04:51:39;4.50;;;2.10;;
57315;SDS011;43156;50.942;18.144;2022-07-29T04:54:37;3.50;;;1.80;;
57315;SDS011;43156;50.942;18.144;2022-07-29T04:57:24;4.80;;;1.70;;
57315;SDS011;43156;50.942;18.144;2022-07-29T05:00:11;4.90;;;1.60;;
57315;SDS011;43156;50.942;18.144;2022-07-29T05:02:56;3.20;;;1.80;;
57315;SDS011;43156;50.942;18.144;2022-07-29T05:05:42;4.30;;;1.50;;
57315;SDS011;43156;50.942;18.144;2022-07-29T05:08:28;3.70;;;1.60;;
57315;SDS011;43156;50.942;18.144;2022-07-29T05:11:15;2.90;;;1.50;;
57315;SDS011;43156;50.942;18.144;2022-07-29T05:14:00;9.60;;;1.80;;
57315;SDS011;43156;50.942;18.144;2022-07-29T05:16:50;4.50;;;1.60;;
57315;SDS011;43156;50.942;18.144;2022-07-29T05:19:40;3.30;;;1.40;;
57315;SDS011;43156;50.942;18.144;2022-07-29T05:22:28;3.90;;;1.60;;
57315;SDS011;43156;50.942;18.144;2022-07-29T05:25:14;2.90;;;1.30;;
57315;SDS011;43156;50.942;18.144;2022-07-29T05:28:13;3.60;;;1.40;;
57315;SDS011;43156;50.942;18.144;2022-07-29T05:31:00;4.70;;;1.30;;
57315;SDS011;43156;50.942;18.144;2022-07-29T05:33:45;4.20;;;1.40;;
57315;SDS011;43156;50.942;18.144;2022-07-29T05:36:29;5.70;;;1.20;;
57315;SDS011;43156;50.942;18.144;2022-07-29T05:39:15;3.00;;;1.20;;
57315;SDS011;43156;50.942;18.144;2022-07-29T05:42:12;5.20;;;1.60;;
57315;SDS011;43156;50.942;18.144;2022-07-29T05:45:06;3.90;;;1.40;;
57315;SDS011;43156;50.942;18.144;2022-07-29T05:47:52;6.20;;;1.50;;
57315;SDS011;43156;50.942;18.144;2022-07-29T05:50:37;5.50;;;1.60;;
57315;SDS011;43156;50.942;18.144;2022-07-29T05:53:23;2.60;;;1.20;;
57315;SDS011;43156;50.942;18.144;2022-07-29T05:56:11;5.60;;;1.20;;
57315;SDS011;43156;50.942;18.144;2022-07-29T05:59:01;2.70;;;1.20;;
57315;SDS011;43156;50.942;18.144;2022-07-29T06:01:52;4.20;;;1.20;;
57315;SDS011;43156;50.942;18.144;2022-07-29T06:04:42;3.20;;;1.40;;
57315;SDS011;43156;50.942;18.144;2022-07-29T06:07:34;5.60;;;1.50;;
57315;SDS011;43156;50.942;18.144;2022-07-29T06:10:26;18.90;;;1.90;;
57315;SDS011;43156;50.942;18.144;2022-07-29T06:13:10;10.80;;;2.00;;
57315;SDS011;43156;50.942;18.144;2022-07-29T06:15:56;3.10;;;1.40;;
57315;SDS011;43156;50.942;18.144;2022-07-29T06:18:42;6.80;;;1.50;;
57315;SDS011;43156;50.942;18.144;2022-07-29T06:21:27;11.20;;;1.50;;
57315;SDS011;43156;50.942;18.144;2022-07-29T06:24:17;2.90;;;1.20;;
57315;SDS011;43156;50.942;18.144;2022-07-29T06:27:13;8.20;;;1.50;;
57315;SDS011;43156;50.942;18.144;2022-07-29T06:29:59;5.90;;;1.10;;
57315;SDS011;43156;50.942;18.144;2022-07-29T06:32:46;5.60;;;1.10;;
57315;SDS011;43156;50.942;18.144;2022-07-29T06:35:34;3.70;;;1.10;;
57315;SDS011;43156;50.942;18.144;2022-07-29T06:38:24;3.80;;;1.00;;
57315;SDS011;43156;50.942;18.144;2022-07-29T06:41:13;10.20;;;1.70;;
57315;SDS011;43156;50.942;18.144;2022-07-29T06:44:07;5.80;;;1.20;;
57315;SDS011;43156;50.942;18.144;2022-07-29T06:46:55;4.60;;;1.10;;
57315;SDS011;43156;50.942;18.144;2022-07-29T06:49:43;6.00;;;1.20;;
57315;SDS011;43156;50.942;18.144;2022-07-29T06:52:28;3.80;;;1.20;;
57315;SDS011;43156;50.942;18.144;2022-07-29T06:55:15;5.40;;;1.30;;
57315;SDS011;43156;50.942;18.144;2022-07-29T06:58:03;3.80;;;1.20;;
57315;SDS011;43156;50.942;18.144;2022-07-29T07:00:48;5.00;;;1.40;;
57315;SDS011;43156;50.942;18.144;2022-07-29T07:03:34;2.50;;;1.00;;
57315;SDS011;43156;50.942;18.144;2022-07-29T07:06:28;8.70;;;1.70;;
57315;SDS011;43156;50.942;18.144;2022-07-29T07:09:18;15.90;;;1.80;;
57315;SDS011;43156;50.942;18.144;2022-07-29T07:12:03;7.80;;;1.50;;
57315;SDS011;43156;50.942;18.144;2022-07-29T07:14:51;5.20;;;1.50;;
57315;SDS011;43156;50.942;18.144;2022-07-29T07:17:36;3.70;;;1.20;;
57315;SDS011;43156;50.942;18.144;2022-07-29T07:20:29;6.30;;;1.40;;
57315;SDS011;43156;50.942;18.144;2022-07-29T07:23:25;4.40;;;1.30;;
57315;SDS011;43156;50.942;18.144;2022-07-29T07:26:17;5.60;;;1.30;;
57315;SDS011;43156;50.942;18.144;2022-07-29T07:29:03;4.90;;;1.30;;
57315;SDS011;43156;50.942;18.144;2022-07-29T07:31:51;6.40;;;1.40;;
57315;SDS011;43156;50.942;18.144;2022-07-29T07:34:38;5.00;;;1.50;;
57315;SDS011;43156;50.942;18.144;2022-07-29T07:37:28;4.10;;;1.30;;
57315;SDS011;43156;50.942;18.144;2022-07-29T07:40:22;3.70;;;1.30;;
57315;SDS011;43156;50.942;18.144;2022-07-29T07:43:07;9.40;;;1.70;;
57315;SDS011;43156;50.942;18.144;2022-07-29T07:45:53;5.80;;;1.40;;
57315;SDS011;43156;50.942;18.144;2022-07-29T07:48:40;6.50;;;1.50;;
57315;SDS011;43156;50.942;18.144;2022-07-29T07:54:18;5.10;;;1.40;;
57315;SDS011;43156;50.942;18.144;2022-07-29T07:57:06;3.70;;;1.20;;
57315;SDS011;43156;50.942;18.144;2022-07-29T07:59:52;3.40;;;1.50;;
57315;SDS011;43156;50.942;18.144;2022-07-29T08:02:40;3.60;;;1.10;;
57315;SDS011;43156;50.942;18.144;2022-07-29T08:05:26;2.10;;;1.10;;
57315;SDS011;43156;50.942;18.144;2022-07-29T08:08:12;4.30;;;1.30;;
57315;SDS011;43156;50.942;18.144;2022-07-29T08:10:57;3.50;;;1.20;;
57315;SDS011;43156;50.942;18.144;2022-07-29T08:13:46;4.50;;;1.20;;
57315;SDS011;43156;50.942;18.144;2022-07-29T08:16:32;6.40;;;1.30;;
57315;SDS011;43156;50.942;18.144;2022-07-29T08:19:31;5.20;;;1.20;;
57315;SDS011;43156;50.942;18.144;2022-07-29T08:22:20;3.70;;;1.20;;
57315;SDS011;43156;50.942;18.144;2022-07-29T08:25:11;7.10;;;1.50;;
57315;SDS011;43156;50.942;18.144;2022-07-29T08:27:59;4.00;;;1.40;;
57315;SDS011;43156;50.942;18.144;2022-07-29T08:30:45;3.80;;;1.20;;
57315;SDS011;43156;50.942;18.144;2022-07-29T08:33:33;5.10;;;1.40;;
57315;SDS011;43156;50.942;18.144;2022-07-29T08:36:26;11.70;;;1.50;;
57315;SDS011;43156;50.942;18.144;2022-07-29T08:39:13;4.90;;;1.20;;
57315;SDS011;43156;50.942;18.144;2022-07-29T08:42:02;6.90;;;1.40;;
57315;SDS011;43156;50.942;18.144;2022-07-29T08:44:47;5.10;;;1.40;;
57315;SDS011;43156;50.942;18.144;2022-07-29T08:47:34;6.50;;;1.40;;
57315;SDS011;43156;50.942;18.144;2022-07-29T08:50:22;5.10;;;1.40;;
57315;SDS011;43156;50.942;18.144;2022-07-29T08:53:25;3.00;;;1.10;;
57315;SDS011;43156;50.942;18.144;2022-07-29T08:56:17;23.80;;;2.50;;
57315;SDS011;43156;50.942;18.144;2022-07-29T08:59:03;6.30;;;1.30;;
57315;SDS011;43156;50.942;18.144;2022-07-29T09:02:04;4.60;;;1.40;;
57315;SDS011;43156;50.942;18.144;2022-07-29T09:04:54;10.40;;;1.60;;
57315;SDS011;43156;50.942;18.144;2022-07-29T09:07:40;21.60;;;2.10;;
57315;SDS011;43156;50.942;18.144;2022-07-29T09:10:37;4.20;;;1.30;;
57315;SDS011;43156;50.942;18.144;2022-07-29T09:13:22;4.40;;;1.30;;
57315;SDS011;43156;50.942;18.144;2022-07-29T09:16:21;2.30;;;1.20;;
57315;SDS011;43156;50.942;18.144;2022-07-29T09:19:27;5.40;;;1.40;;
57315;SDS011;43156;50.942;18.144;2022-07-29T09:22:27;3.70;;;1.20;;
57315;SDS011;43156;50.942;18.144;2022-07-29T09:25:37;3.80;;;1.20;;
57315;SDS011;43156;50.942;18.144;2022-07-29T09:28:25;4.40;;;1.40;;
57315;SDS011;43156;50.942;18.144;2022-07-29T09:31:13;7.70;;;2.00;;
57315;SDS011;43156;50.942;18.144;2022-07-29T09:33:59;14.70;;;2.80;;
57315;SDS011;43156;50.942;18.144;2022-07-29T09:36:48;5.10;;;1.70;;
57315;SDS011;43156;50.942;18.144;2022-07-29T09:39:38;4.30;;;1.60;;
57315;SDS011;43156;50.942;18.144;2022-07-29T09:42:30;3.00;;;1.70;;
57315;SDS011;43156;50.942;18.144;2022-07-29T09:45:28;3.60;;;1.40;;
57315;SDS011;43156;50.942;18.144;2022-07-29T09:48:19;6.90;;;1.50;;
57315;SDS011;43156;50.942;18.144;2022-07-29T09:51:19;7.30;;;1.60;;
57315;SDS011;43156;50.942;18.144;2022-07-29T09:54:23;4.50;;;1.60;;
57315;SDS011;43156;50.942;18.144;2022-07-29T09:57:26;4.10;;;1.70;;
57315;SDS011;43156;50.942;18.144;2022-07-29T10:00:17;4.70;;;1.60;;
57315;SDS011;43156;50.942;18.144;2022-07-29T10:03:03;4.30;;;1.80;;
57315;SDS011;43156;50.942;18.144;2022-07-29T10:08:51;4.60;;;1.50;;
57315;SDS011;43156;50.942;18.144;2022-07-29T10:11:37;5.10;;;1.60;;
57315;SDS011;43156;50.942;18.144;2022-07-29T10:14:23;5.10;;;1.60;;
57315;SDS011;43156;50.942;18.144;2022-07-29T10:17:09;4.00;;;1.30;;
57315;SDS011;43156;50.942;18.144;2022-07-29T10:19:55;4.00;;;1.60;;
57315;SDS011;43156;50.942;18.144;2022-07-29T10:22:42;4.80;;;1.60;;
57315;SDS011;43156;50.942;18.144;2022-07-29T10:25:32;3.50;;;1.40;;
57315;SDS011;43156;50.942;18.144;2022-07-29T10:28:20;5.00;;;1.60;;
57315;SDS011;43156;50.942;18.144;2022-07-29T10:31:15;6.10;;;1.70;;
57315;SDS011;43156;50.942;18.144;2022-07-29T10:36:56;6.20;;;2.00;;
57315;SDS011;43156;50.942;18.144;2022-07-29T10:43:21;5.50;;;1.70;;
57315;SDS011;43156;50.942;18.144;2022-07-29T10:46:09;3.40;;;1.40;;
57315;SDS011;43156;50.942;18.144;2022-07-29T10:51:58;20.90;;;2.20;;
57315;SDS011;43156;50.942;18.144;2022-07-29T10:54:46;5.90;;;1.70;;
57315;SDS011;43156;50.942;18.144;2022-07-29T10:57:33;5.30;;;1.80;;
57315;SDS011;43156;50.942;18.144;2022-07-29T11:00:28;6.30;;;1.70;;
57315;SDS011;43156;50.942;18.144;2022-07-29T11:06:22;4.60;;;1.70;;
57315;SDS011;43156;50.942;18.144;2022-07-29T11:09:16;3.80;;;1.50;;
57315;SDS011;43156;50.942;18.144;2022-07-29T11:12:03;6.20;;;1.60;;
57315;SDS011;43156;50.942;18.144;2022-07-29T11:14:58;3.60;;;1.60;;
57315;SDS011;43156;50.942;18.144;2022-07-29T11:26:17;8.30;;;2.10;;
57315;SDS011;43156;50.942;18.144;2022-07-29T11:29:19;8.60;;;2.20;;
57315;SDS011;43156;50.942;18.144;2022-07-29T11:32:12;6.70;;;1.70;;
57315;SDS011;43156;50.942;18.144;2022-07-29T11:35:19;5.90;;;1.90;;
57315;SDS011;43156;50.942;18.144;2022-07-29T11:43:57;3.70;;;1.80;;
57315;SDS011;43156;50.942;18.144;2022-07-29T11:46:49;8.20;;;2.10;;
57315;SDS011;43156;50.942;18.144;2022-07-29T11:49:47;2.50;;;1.60;;
57315;SDS011;43156;50.942;18.144;2022-07-29T11:52:44;6.30;;;1.80;;
57315;SDS011;43156;50.942;18.144;2022-07-29T11:55:31;4.60;;;1.60;;
57315;SDS011;43156;50.942;18.144;2022-07-29T11:58:27;5.10;;;1.90;;
57315;SDS011;43156;50.942;18.144;2022-07-29T12:01:13;3.80;;;1.60;;
57315;SDS011;43156;50.942;18.144;2022-07-29T12:04:08;4.90;;;2.50;;
57315;SDS011;43156;50.942;18.144;2022-07-29T12:06:56;5.00;;;2.00;;
57315;SDS011;43156;50.942;18.144;2022-07-29T12:09:50;3.30;;;1.90;;
57315;SDS011;43156;50.942;18.144;2022-07-29T12:12:40;3.00;;;1.50;;
57315;SDS011;43156;50.942;18.144;2022-07-29T12:15:29;3.60;;;1.80;;
57315;SDS011;43156;50.942;18.144;2022-07-29T12:18:16;5.90;;;1.70;;
57315;SDS011;43156;50.942;18.144;2022-07-29T12:21:02;7.50;;;1.70;;
57315;SDS011;43156;50.942;18.144;2022-07-29T12:23:55;6.70;;;1.80;;
57315;SDS011;43156;50.942;18.144;2022-07-29T12:26:51;5.60;;;1.90;;
57315;SDS011;43156;50.942;18.144;2022-07-29T12:29:58;6.50;;;1.70;;
57315;SDS011;43156;50.942;18.144;2022-07-29T12:32:45;4.50;;;1.50;;
57315;SDS011;43156;50.942;18.144;2022-07-29T12:35:33;6.50;;;1.80;;
57315;SDS011;43156;50.942;18.144;2022-07-29T12:38:21;4.90;;;1.90;;
57315;SDS011;43156;50.942;18.144;2022-07-29T12:41:05;7.10;;;5.90;;
57315;SDS011;43156;50.942;18.144;2022-07-29T12:43:53;4.70;;;1.70;;
57315;SDS011;43156;50.942;18.144;2022-07-29T12:46:39;5.40;;;1.90;;
57315;SDS011;43156;50.942;18.144;2022-07-29T12:49:27;4.90;;;1.70;;
57315;SDS011;43156;50.942;18.144;2022-07-29T12:55:43;3.30;;;1.70;;
57315;SDS011;43156;50.942;18.144;2022-07-29T12:58:37;6.00;;;1.90;;
57315;SDS011;43156;50.942;18.144;2022-07-29T13:01:24;43.00;;;3.30;;
57315;SDS011;43156;50.942;18.144;2022-07-29T13:04:10;6.60;;;2.10;;
57315;SDS011;43156;50.942;18.144;2022-07-29T13:07:00;6.70;;;1.90;;
57315;SDS011;43156;50.942;18.144;2022-07-29T13:09:47;11.00;;;2.30;;
57315;SDS011;43156;50.942;18.144;2022-07-29T13:13:01;3.50;;;1.70;;
57315;SDS011;43156;50.942;18.144;2022-07-29T13:15:46;7.50;;;2.00;;
57315;SDS011;43156;50.942;18.144;2022-07-29T13:21:53;3.50;;;1.80;;
57315;SDS011;43156;50.942;18.144;2022-07-29T13:24:47;9.60;;;2.00;;
57315;SDS011;43156;50.942;18.144;2022-07-29T13:27:33;6.70;;;1.90;;
57315;SDS011;43156;50.942;18.144;2022-07-29T13:30:18;7.70;;;1.90;;
57315;SDS011;43156;50.942;18.144;2022-07-29T13:33:03;13.10;;;2.40;;
57315;SDS011;43156;50.942;18.144;2022-07-29T13:35:49;3.20;;;1.80;;
57315;SDS011;43156;50.942;18.144;2022-07-29T13:38:33;8.00;;;2.50;;
57315;SDS011;43156;50.942;18.144;2022-07-29T13:41:20;5.40;;;1.90;;
57315;SDS011;43156;50.942;18.144;2022-07-29T13:44:21;6.50;;;1.90;;
57315;SDS011;43156;50.942;18.144;2022-07-29T13:47:08;4.70;;;1.90;;
57315;SDS011;43156;50.942;18.144;2022-07-29T13:49:52;5.10;;;1.90;;
57315;SDS011;43156;50.942;18.144;2022-07-29T13:52:40;5.20;;;2.00;;
57315;SDS011;43156;50.942;18.144;2022-07-29T13:55:26;5.40;;;2.40;;
57315;SDS011;43156;50.942;18.144;2022-07-29T13:58:11;4.70;;;2.00;;
57315;SDS011;43156;50.942;18.144;2022-07-29T14:01:03;5.30;;;2.20;;
57315;SDS011;43156;50.942;18.144;2022-07-29T14:03:48;6.10;;;2.80;;
57315;SDS011;43156;50.942;18.144;2022-07-29T14:06:41;4.00;;;2.20;;
57315;SDS011;43156;50.942;18.144;2022-07-29T14:09:27;6.10;;;2.00;;
57315;SDS011;43156;50.942;18.144;2022-07-29T14:12:36;5.40;;;2.30;;
57315;SDS011;43156;50.942;18.144;2022-07-29T14:15:30;6.50;;;2.30;;
57315;SDS011;43156;50.942;18.144;2022-07-29T14:18:19;4.70;;;2.10;;
57315;SDS011;43156;50.942;18.144;2022-07-29T14:21:04;7.20;;;2.80;;
57315;SDS011;43156;50.942;18.144;2022-07-29T14:24:02;12.90;;;4.80;;
57315;SDS011;43156;50.942;18.144;2022-07-29T14:26:48;11.40;;;8.60;;
57315;SDS011;43156;50.942;18.144;2022-07-29T14:29:34;11.20;;;7.80;;
57315;SDS011;43156;50.942;18.144;2022-07-29T14:32:38;9.40;;;3.80;;
57315;SDS011;43156;50.942;18.144;2022-07-29T14:35:24;4.70;;;2.00;;
57315;SDS011;43156;50.942;18.144;2022-07-29T14:38:15;4.40;;;1.80;;
57315;SDS011;43156;50.942;18.144;2022-07-29T14:41:00;5.30;;;2.00;;
57315;SDS011;43156;50.942;18.144;2022-07-29T14:43:48;6.90;;;2.20;;
57315;SDS011;43156;50.942;18.144;2022-07-29T14:46:35;7.30;;;2.10;;
57315;SDS011;43156;50.942;18.144;2022-07-29T14:49:22;6.70;;;2.20;;
57315;SDS011;43156;50.942;18.144;2022-07-29T14:52:06;7.80;;;2.50;;
57315;SDS011;43156;50.942;18.144;2022-07-29T14:54:42;9.90;;;2.40;;
57315;SDS011;43156;50.942;18.144;2022-07-29T14:57:27;8.40;;;3.30;;
57315;SDS011;43156;50.942;18.144;2022-07-29T15:00:12;6.10;;;2.50;;
57315;SDS011;43156;50.942;18.144;2022-07-29T15:03:00;8.10;;;3.40;;
57315;SDS011;43156;50.942;18.144;2022-07-29T15:05:46;9.40;;;2.60;;
57315;SDS011;43156;50.942;18.144;2022-07-29T15:08:30;7.90;;;3.40;;
57315;SDS011;43156;50.942;18.144;2022-07-29T15:11:15;11.30;;;4.00;;
57315;SDS011;43156;50.942;18.144;2022-07-29T15:14:03;6.10;;;3.50;;
57315;SDS011;43156;50.942;18.144;2022-07-29T15:16:50;8.10;;;4.20;;
57315;SDS011;43156;50.942;18.144;2022-07-29T15:19:36;6.50;;;3.40;;
57315;SDS011;43156;50.942;18.144;2022-07-29T15:22:26;6.40;;;3.10;;
57315;SDS011;43156;50.942;18.144;2022-07-29T15:25:12;5.10;;;3.00;;
57315;SDS011;43156;50.942;18.144;2022-07-29T15:28:00;5.10;;;3.00;;
57315;SDS011;43156;50.942;18.144;2022-07-29T15:30:51;13.10;;;2.60;;
57315;SDS011;43156;50.942;18.144;2022-07-29T15:33:41;4.40;;;2.60;;
57315;SDS011;43156;50.942;18.144;2022-07-29T15:36:28;7.10;;;3.00;;
57315;SDS011;43156;50.942;18.144;2022-07-29T15:39:15;5.10;;;2.80;;
57315;SDS011;43156;50.942;18.144;2022-07-29T15:42:05;6.10;;;2.70;;
57315;SDS011;43156;50.942;18.144;2022-07-29T15:44:53;5.80;;;2.90;;
57315;SDS011;43156;50.942;18.144;2022-07-29T15:47:39;4.20;;;2.70;;
57315;SDS011;43156;50.942;18.144;2022-07-29T15:50:24;5.60;;;3.50;;
57315;SDS011;43156;50.942;18.144;2022-07-29T15:53:10;4.00;;;3.10;;
57315;SDS011;43156;50.942;18.144;2022-07-29T15:55:55;5.10;;;3.10;;
57315;SDS011;43156;50.942;18.144;2022-07-29T15:58:50;6.30;;;2.90;;
57315;SDS011;43156;50.942;18.144;2022-07-29T16:01:52;3.20;;;2.80;;
57315;SDS011;43156;50.942;18.144;2022-07-29T16:04:43;6.50;;;3.60;;
57315;SDS011;43156;50.942;18.144;2022-07-29T16:07:28;5.60;;;3.10;;
57315;SDS011;43156;50.942;18.144;2022-07-29T16:10:14;7.50;;;3.00;;
57315;SDS011;43156;50.942;18.144;2022-07-29T16:13:04;5.80;;;3.10;;
57315;SDS011;43156;50.942;18.144;2022-07-29T16:16:23;3.90;;;3.00;;
57315;SDS011;43156;50.942;18.144;2022-07-29T16:19:20;5.80;;;3.20;;
57315;SDS011;43156;50.942;18.144;2022-07-29T16:22:19;5.60;;;3.50;;
57315;SDS011;43156;50.942;18.144;2022-07-29T16:25:26;4.60;;;3.20;;
57315;SDS011;43156;50.942;18.144;2022-07-29T16:28:15;5.70;;;3.30;;
57315;SDS011;43156;50.942;18.144;2022-07-29T16:31:06;7.60;;;3.10;;
57315;SDS011;43156;50.942;18.144;2022-07-29T16:33:52;5.30;;;3.20;;
57315;SDS011;43156;50.942;18.144;2022-07-29T16:36:41;6.40;;;3.60;;
57315;SDS011;43156;50.942;18.144;2022-07-29T16:39:41;7.40;;;5.20;;
57315;SDS011;43156;50.942;18.144;2022-07-29T16:42:39;6.70;;;4.40;;
57315;SDS011;43156;50.942;18.144;2022-07-29T16:45:25;4.90;;;3.90;;
57315;SDS011;43156;50.942;18.144;2022-07-29T16:48:21;11.30;;;7.50;;
57315;SDS011;43156;50.942;18.144;2022-07-29T16:51:12;6.50;;;4.30;;
57315;SDS011;43156;50.942;18.144;2022-07-29T16:53:58;5.40;;;4.80;;
57315;SDS011;43156;50.942;18.144;2022-07-29T16:56:55;4.70;;;3.60;;
57315;SDS011;43156;50.942;18.144;2022-07-29T16:59:46;4.50;;;3.60;;
57315;SDS011;43156;50.942;18.144;2022-07-29T17:02:40;4.20;;;3.70;;
57315;SDS011;43156;50.942;18.144;2022-07-29T17:05:27;5.10;;;3.90;;
57315;SDS011;43156;50.942;18.144;2022-07-29T17:08:14;6.80;;;3.50;;
57315;SDS011;43156;50.942;18.144;2022-07-29T17:11:06;4.60;;;3.00;;
57315;SDS011;43156;50.942;18.144;2022-07-29T17:14:04;4.00;;;3.30;;
57315;SDS011;43156;50.942;18.144;2022-07-29T17:16:58;6.20;;;3.60;;
57315;SDS011;43156;50.942;18.144;2022-07-29T17:19:56;6.50;;;3.60;;
57315;SDS011;43156;50.942;18.144;2022-07-29T17:22:57;5.50;;;3.50;;
57315;SDS011;43156;50.942;18.144;2022-07-29T17:25:54;4.70;;;3.80;;
57315;SDS011;43156;50.942;18.144;2022-07-29T17:28:40;5.30;;;3.30;;
57315;SDS011;43156;50.942;18.144;2022-07-29T17:31:27;4.30;;;3.20;;
57315;SDS011;43156;50.942;18.144;2022-07-29T17:34:23;4.20;;;3.20;;
57315;SDS011;43156;50.942;18.144;2022-07-29T17:37:08;5.10;;;3.30;;
57315;SDS011;43156;50.942;18.144;2022-07-29T17:39:44;5.00;;;3.00;;
57315;SDS011;43156;50.942;18.144;2022-07-29T17:42:31;5.30;;;2.80;;
57315;SDS011;43156;50.942;18.144;2022-07-29T17:45:19;5.40;;;3.50;;
57315;SDS011;43156;50.942;18.144;2022-07-29T17:48:05;5.00;;;3.20;;
57315;SDS011;43156;50.942;18.144;2022-07-29T17:50:50;5.60;;;3.40;;